UAE88 LSZH-OMDB
Flight info
| Callsign | UAE88 |
|---|---|
| Flight time | N/A |
| Altitude | 35000 |
| Route | DEGES Z2 XEBIX L607 ELMEM N606 GIRIS DCT TISAX DCT NAXAV DCT GIKEB DCT ROSKA DCT ROTAR DCT AIOSA DCT LATAN DCT SALUN N705 MMA P751 DASUM Y234 FYM M872 PMA/N0506F370 M872 BDB Y214 RAPMA DCT KUVSO DCT KATIT DCT PEKEM M628 RIGIL G783 ELUDA/N0508F350 G783 ASPED Q308 KIPOK Q568 IMPED |
| Aircraft | B77W/H-SDE1E2E3FGHIJ2J3J4J5M1RWXY/LB1D1 |
Departure
| Time | N/A |
|---|---|
| Airport | Zürich Airport (LSZH) |
Arrival
| Time | 2026-04-20 14:31 |
|---|---|
| Airport | Dubai International Airport (OMDB) |
| Time | Latitude | Longitude | Altitude | Speed | Heading |
|---|---|---|---|---|---|
| 2026-04-20 12:25 | 24.90810 | 38.27503 | 36973 ft | 616 kts | 109° |
| 2026-04-20 12:26 | 24.88570 | 38.36639 | 36959 ft | 616 kts | 109° |
| 2026-04-20 12:26 | 24.86332 | 38.45708 | 36927 ft | 615 kts | 109° |
| 2026-04-20 12:27 | 24.84065 | 38.54846 | 36920 ft | 617 kts | 108° |
| 2026-04-20 12:27 | 24.81816 | 38.63881 | 36949 ft | 615 kts | 109° |
| 2026-04-20 12:28 | 24.79535 | 38.73012 | 36950 ft | 614 kts | 109° |
| 2026-04-20 12:28 | 24.77257 | 38.82098 | 36958 ft | 614 kts | 109° |
| 2026-04-20 12:29 | 24.74978 | 38.91163 | 36937 ft | 612 kts | 109° |
| 2026-04-20 12:29 | 24.72711 | 39.00154 | 36930 ft | 612 kts | 109° |
| 2026-04-20 12:30 | 24.70549 | 39.08704 | 36921 ft | 612 kts | 109° |
| 2026-04-20 12:30 | 24.68299 | 39.17577 | 36915 ft | 611 kts | 109° |
| 2026-04-20 12:31 | 24.66017 | 39.26554 | 36915 ft | 610 kts | 108° |
| 2026-04-20 12:31 | 24.63725 | 39.35543 | 36940 ft | 610 kts | 108° |
| 2026-04-20 12:32 | 24.61442 | 39.44476 | 36958 ft | 608 kts | 109° |
| 2026-04-20 12:32 | 24.59155 | 39.53397 | 36971 ft | 609 kts | 108° |
| 2026-04-20 12:33 | 24.56856 | 39.62344 | 36969 ft | 607 kts | 109° |
| 2026-04-20 12:33 | 24.54663 | 39.71302 | 36933 ft | 608 kts | 103° |
| 2026-04-20 12:34 | 24.53649 | 39.80489 | 36942 ft | 611 kts | 97° |
| 2026-04-20 12:34 | 24.52816 | 39.89778 | 36945 ft | 610 kts | 97° |
| 2026-04-20 12:35 | 24.51958 | 39.99026 | 36959 ft | 610 kts | 97° |
| 2026-04-20 12:35 | 24.51082 | 40.08257 | 36963 ft | 609 kts | 97° |
| 2026-04-20 12:36 | 24.50193 | 40.17465 | 36963 ft | 609 kts | 98° |
| 2026-04-20 12:36 | 24.49292 | 40.26696 | 36958 ft | 609 kts | 97° |
| 2026-04-20 12:37 | 24.48381 | 40.35925 | 36961 ft | 610 kts | 97° |
| 2026-04-20 12:37 | 24.47464 | 40.45146 | 36965 ft | 610 kts | 97° |
| 2026-04-20 12:38 | 24.46542 | 40.54347 | 36966 ft | 610 kts | 97° |
| 2026-04-20 12:38 | 24.45610 | 40.63589 | 36971 ft | 610 kts | 97° |
| 2026-04-20 12:39 | 24.44200 | 40.77418 | 36947 ft | 611 kts | 98° |
| 2026-04-20 12:40 | 24.43291 | 40.86270 | 36952 ft | 611 kts | 98° |
| 2026-04-20 12:40 | 24.42330 | 40.95563 | 36952 ft | 610 kts | 97° |
| 2026-04-20 12:41 | 24.41372 | 41.04777 | 36956 ft | 610 kts | 97° |
| 2026-04-20 12:41 | 24.40407 | 41.14011 | 36962 ft | 610 kts | 97° |
| 2026-04-20 12:42 | 24.39438 | 41.23239 | 36972 ft | 611 kts | 97° |
| 2026-04-20 12:42 | 24.38464 | 41.32454 | 36980 ft | 610 kts | 97° |
| 2026-04-20 12:43 | 24.37486 | 41.41662 | 36989 ft | 609 kts | 97° |
| 2026-04-20 12:43 | 24.36502 | 41.50863 | 37002 ft | 609 kts | 97° |
| 2026-04-20 12:44 | 24.35515 | 41.60047 | 37002 ft | 608 kts | 97° |
| 2026-04-20 12:44 | 24.34523 | 41.69224 | 36962 ft | 608 kts | 97° |
| 2026-04-20 12:45 | 24.33526 | 41.78395 | 36962 ft | 608 kts | 98° |
| 2026-04-20 12:45 | 24.31809 | 41.87302 | 36970 ft | 605 kts | 108° |
| 2026-04-20 12:46 | 24.29490 | 41.96162 | 36964 ft | 604 kts | 109° |
| 2026-04-20 12:46 | 24.27159 | 42.05004 | 36968 ft | 604 kts | 108° |
| 2026-04-20 12:47 | 24.24834 | 42.13808 | 36971 ft | 604 kts | 109° |
| 2026-04-20 12:47 | 24.22514 | 42.22573 | 36977 ft | 602 kts | 108° |
| 2026-04-20 12:48 | 24.20180 | 42.31368 | 36984 ft | 602 kts | 108° |
| 2026-04-20 12:48 | 24.17848 | 42.40132 | 36988 ft | 601 kts | 108° |
| 2026-04-20 12:49 | 24.15501 | 42.48934 | 36996 ft | 601 kts | 108° |
| 2026-04-20 12:49 | 24.13169 | 42.57659 | 36997 ft | 600 kts | 108° |
| 2026-04-20 12:50 | 24.10828 | 42.66393 | 36992 ft | 600 kts | 108° |
| 2026-04-20 12:50 | 24.08479 | 42.75140 | 36982 ft | 600 kts | 108° |
| 2026-04-20 12:51 | 24.06126 | 42.83877 | 36988 ft | 599 kts | 109° |
| 2026-04-20 12:51 | 24.03886 | 42.92175 | 36994 ft | 598 kts | 108° |
| 2026-04-20 12:52 | 24.01537 | 43.00851 | 37003 ft | 599 kts | 108° |
| 2026-04-20 12:52 | 23.99171 | 43.09569 | 37004 ft | 597 kts | 108° |
| 2026-04-20 12:53 | 23.96814 | 43.18234 | 37000 ft | 598 kts | 108° |
| 2026-04-20 12:53 | 23.94446 | 43.26920 | 37005 ft | 597 kts | 108° |
| 2026-04-20 12:54 | 23.92071 | 43.35607 | 37014 ft | 598 kts | 108° |
| 2026-04-20 12:54 | 23.89694 | 43.44283 | 37015 ft | 598 kts | 108° |
| 2026-04-20 12:55 | 23.87301 | 43.52993 | 37020 ft | 599 kts | 108° |
| 2026-04-20 12:55 | 23.84910 | 43.61678 | 37009 ft | 600 kts | 108° |
| 2026-04-20 12:56 | 23.82608 | 43.70019 | 36977 ft | 600 kts | 109° |
| 2026-04-20 12:56 | 23.80177 | 43.78807 | 36979 ft | 600 kts | 109° |
| 2026-04-20 12:57 | 23.77848 | 43.87491 | 36982 ft | 602 kts | 104° |
| 2026-04-20 12:57 | 23.76787 | 43.96539 | 36980 ft | 602 kts | 94° |
| 2026-04-20 12:58 | 23.76126 | 44.05605 | 36973 ft | 602 kts | 94° |
| 2026-04-20 12:58 | 23.75490 | 44.14245 | 36977 ft | 603 kts | 94° |
| 2026-04-20 12:59 | 23.74806 | 44.23409 | 36980 ft | 603 kts | 94° |
| 2026-04-20 12:59 | 23.74119 | 44.32510 | 36983 ft | 602 kts | 94° |
| 2026-04-20 13:00 | 23.73426 | 44.41587 | 36992 ft | 603 kts | 94° |
| 2026-04-20 13:00 | 23.72724 | 44.50712 | 37000 ft | 603 kts | 94° |
| 2026-04-20 13:01 | 23.72018 | 44.59816 | 37004 ft | 604 kts | 94° |
| 2026-04-20 13:01 | 23.71306 | 44.68910 | 36970 ft | 604 kts | 94° |
| 2026-04-20 13:02 | 23.70585 | 44.78051 | 36971 ft | 605 kts | 94° |
| 2026-04-20 13:02 | 23.69860 | 44.87170 | 36966 ft | 604 kts | 94° |
| 2026-04-20 13:03 | 23.69131 | 44.96272 | 36960 ft | 605 kts | 94° |
| 2026-04-20 13:03 | 23.68393 | 45.05413 | 36961 ft | 604 kts | 94° |
| 2026-04-20 13:04 | 23.67652 | 45.14529 | 36963 ft | 605 kts | 94° |
| 2026-04-20 13:04 | 23.66903 | 45.23675 | 36966 ft | 603 kts | 94° |
| 2026-04-20 13:05 | 23.66152 | 45.32778 | 36962 ft | 603 kts | 94° |
| 2026-04-20 13:05 | 23.65393 | 45.41917 | 36955 ft | 604 kts | 94° |
| 2026-04-20 13:06 | 23.64633 | 45.50995 | 36953 ft | 603 kts | 94° |
| 2026-04-20 13:06 | 23.63871 | 45.60044 | 36943 ft | 602 kts | 94° |
| 2026-04-20 13:07 | 23.63103 | 45.69083 | 36904 ft | 602 kts | 94° |
| 2026-04-20 13:07 | 23.62324 | 45.78190 | 36896 ft | 602 kts | 94° |
| 2026-04-20 13:08 | 23.61542 | 45.87274 | 36898 ft | 602 kts | 94° |
| 2026-04-20 13:08 | 23.60757 | 45.96321 | 36899 ft | 601 kts | 94° |
| 2026-04-20 13:09 | 23.59976 | 46.05266 | 36906 ft | 601 kts | 94° |
| 2026-04-20 13:09 | 23.59181 | 46.14309 | 36925 ft | 602 kts | 94° |
| 2026-04-20 13:10 | 23.58377 | 46.23391 | 36943 ft | 601 kts | 94° |
| 2026-04-20 13:10 | 23.57575 | 46.32399 | 36963 ft | 602 kts | 94° |
| 2026-04-20 13:11 | 23.56760 | 46.41481 | 36990 ft | 602 kts | 93° |
| 2026-04-20 13:11 | 23.55947 | 46.50486 | 37008 ft | 602 kts | 94° |
| 2026-04-20 13:12 | 23.55121 | 46.59583 | 36996 ft | 600 kts | 94° |
| 2026-04-20 13:12 | 23.54295 | 46.68608 | 36944 ft | 600 kts | 94° |
| 2026-04-20 13:13 | 23.53465 | 46.77632 | 36916 ft | 601 kts | 94° |
| 2026-04-20 13:13 | 23.52658 | 46.86342 | 36904 ft | 599 kts | 94° |
| 2026-04-20 13:14 | 23.51817 | 46.95363 | 36897 ft | 600 kts | 94° |
| 2026-04-20 13:14 | 23.50974 | 47.04353 | 36884 ft | 599 kts | 94° |
| 2026-04-20 13:15 | 23.50123 | 47.13375 | 36882 ft | 599 kts | 94° |
| 2026-04-20 13:15 | 23.49269 | 47.22361 | 36890 ft | 599 kts | 94° |
| 2026-04-20 13:16 | 23.48411 | 47.31344 | 36892 ft | 598 kts | 94° |
| 2026-04-20 13:16 | 23.47547 | 47.40326 | 36896 ft | 598 kts | 93° |
| 2026-04-20 13:17 | 23.46680 | 47.49296 | 36893 ft | 598 kts | 94° |
| 2026-04-20 13:17 | 23.45808 | 47.58258 | 36889 ft | 598 kts | 94° |
| 2026-04-20 13:18 | 23.44929 | 47.67249 | 36865 ft | 599 kts | 94° |
| 2026-04-20 13:18 | 23.44041 | 47.76265 | 36857 ft | 598 kts | 94° |
| 2026-04-20 13:19 | 23.43178 | 47.84984 | 36849 ft | 597 kts | 94° |
| 2026-04-20 13:19 | 23.42287 | 47.93932 | 36855 ft | 598 kts | 94° |
| 2026-04-20 13:20 | 23.41388 | 48.02905 | 36854 ft | 596 kts | 94° |
| 2026-04-20 13:20 | 23.40483 | 48.11886 | 36856 ft | 596 kts | 94° |
| 2026-04-20 13:21 | 23.39577 | 48.20841 | 36858 ft | 597 kts | 94° |
| 2026-04-20 13:21 | 23.38668 | 48.29749 | 36854 ft | 595 kts | 94° |
| 2026-04-20 13:22 | 23.37890 | 48.38667 | 36858 ft | 592 kts | 90° |
| 2026-04-20 13:22 | 23.37580 | 48.47596 | 36852 ft | 592 kts | 89° |
| 2026-04-20 13:23 | 23.37260 | 48.56515 | 36860 ft | 592 kts | 89° |
| 2026-04-20 13:23 | 23.36917 | 48.65438 | 36856 ft | 592 kts | 89° |
| 2026-04-20 13:24 | 23.36558 | 48.74382 | 36823 ft | 590 kts | 90° |
| 2026-04-20 13:24 | 23.36190 | 48.83274 | 36819 ft | 591 kts | 90° |
| 2026-04-20 13:25 | 23.35820 | 48.92011 | 36806 ft | 590 kts | 89° |
| 2026-04-20 13:25 | 23.35437 | 49.00879 | 36794 ft | 589 kts | 89° |
| 2026-04-20 13:26 | 23.34733 | 49.09770 | 36791 ft | 590 kts | 96° |
| 2026-04-20 13:26 | 23.33477 | 49.18594 | 36787 ft | 592 kts | 96° |
| 2026-04-20 13:27 | 23.32209 | 49.27380 | 36779 ft | 591 kts | 96° |
| 2026-04-20 13:27 | 23.30932 | 49.36211 | 36797 ft | 591 kts | 97° |
| 2026-04-20 13:28 | 23.29654 | 49.45012 | 36797 ft | 589 kts | 96° |
| 2026-04-20 13:28 | 23.28371 | 49.53825 | 36802 ft | 591 kts | 97° |
| 2026-04-20 13:29 | 23.27085 | 49.62629 | 36814 ft | 591 kts | 97° |
| 2026-04-20 13:29 | 23.25795 | 49.71417 | 36792 ft | 589 kts | 97° |
| 2026-04-20 13:30 | 23.24504 | 49.80185 | 36795 ft | 590 kts | 97° |
| 2026-04-20 13:30 | 23.23205 | 49.88971 | 36797 ft | 592 kts | 97° |
| 2026-04-20 13:31 | 23.21890 | 49.97825 | 36799 ft | 589 kts | 97° |
| 2026-04-20 13:31 | 23.20587 | 50.06569 | 36802 ft | 590 kts | 97° |
| 2026-04-20 13:32 | 23.19272 | 50.15363 | 36800 ft | 590 kts | 97° |
| 2026-04-20 13:32 | 23.17953 | 50.24145 | 36800 ft | 589 kts | 97° |
| 2026-04-20 13:33 | 23.16634 | 50.32901 | 36802 ft | 590 kts | 97° |
| 2026-04-20 13:33 | 23.15309 | 50.41655 | 36796 ft | 589 kts | 97° |
| 2026-04-20 13:34 | 23.13976 | 50.50423 | 36794 ft | 588 kts | 96° |
| 2026-04-20 13:34 | 23.12646 | 50.59147 | 36796 ft | 588 kts | 97° |
| 2026-04-20 13:35 | 23.11308 | 50.67885 | 36768 ft | 588 kts | 97° |
| 2026-04-20 13:35 | 23.09964 | 50.76637 | 36769 ft | 589 kts | 97° |
| 2026-04-20 13:36 | 23.08703 | 50.84808 | 36771 ft | 587 kts | 97° |
| 2026-04-20 13:36 | 23.07352 | 50.93542 | 36779 ft | 589 kts | 97° |
| 2026-04-20 13:37 | 23.05999 | 51.02246 | 36787 ft | 586 kts | 97° |
| 2026-04-20 13:37 | 23.04634 | 51.10996 | 36789 ft | 587 kts | 97° |
| 2026-04-20 13:38 | 23.03269 | 51.19721 | 36790 ft | 588 kts | 97° |
| 2026-04-20 13:38 | 23.02214 | 51.26436 | 36790 ft | 587 kts | 97° |
| 2026-04-20 13:39 | 23.00846 | 51.35120 | 36782 ft | 588 kts | 97° |
| 2026-04-20 13:39 | 22.99464 | 51.43857 | 36785 ft | 589 kts | 96° |
| 2026-04-20 13:40 | 22.98079 | 51.52587 | 36781 ft | 586 kts | 97° |
| 2026-04-20 13:40 | 22.96687 | 51.61321 | 36787 ft | 587 kts | 96° |
| 2026-04-20 13:41 | 22.95292 | 51.70049 | 36765 ft | 589 kts | 97° |
| 2026-04-20 13:41 | 22.93895 | 51.78753 | 36768 ft | 586 kts | 97° |
| 2026-04-20 13:42 | 22.92499 | 51.87426 | 36775 ft | 587 kts | 97° |
| 2026-04-20 13:42 | 22.90396 | 52.00424 | 36786 ft | 585 kts | 97° |
| 2026-04-20 13:43 | 22.88980 | 52.09141 | 36776 ft | 584 kts | 97° |
| 2026-04-20 13:43 | 22.87570 | 52.17790 | 36783 ft | 583 kts | 97° |
| 2026-04-20 13:44 | 22.86186 | 52.26250 | 36791 ft | 585 kts | 96° |
| 2026-04-20 13:44 | 22.84767 | 52.34887 | 36793 ft | 583 kts | 97° |
| 2026-04-20 13:45 | 22.83403 | 52.43170 | 36798 ft | 582 kts | 97° |
| 2026-04-20 13:45 | 22.82329 | 52.51839 | 36809 ft | 578 kts | 88° |
| 2026-04-20 13:46 | 22.82107 | 52.60498 | 36802 ft | 575 kts | 87° |
| 2026-04-20 13:46 | 22.81903 | 52.69175 | 36793 ft | 577 kts | 87° |
| 2026-04-20 13:47 | 22.81685 | 52.77846 | 36796 ft | 576 kts | 88° |
| 2026-04-20 13:47 | 22.81466 | 52.86241 | 36800 ft | 575 kts | 87° |
| 2026-04-20 13:48 | 22.81232 | 52.94939 | 36805 ft | 577 kts | 87° |
| 2026-04-20 13:48 | 22.80993 | 53.03530 | 36805 ft | 573 kts | 88° |
| 2026-04-20 13:49 | 22.80749 | 53.12165 | 36805 ft | 574 kts | 87° |
| 2026-04-20 13:49 | 22.80499 | 53.20799 | 36808 ft | 573 kts | 87° |
| 2026-04-20 13:50 | 22.80246 | 53.29377 | 36804 ft | 573 kts | 87° |
| 2026-04-20 13:50 | 22.79987 | 53.37994 | 36799 ft | 574 kts | 87° |
| 2026-04-20 13:51 | 22.79723 | 53.46575 | 36804 ft | 572 kts | 87° |
| 2026-04-20 13:51 | 22.79455 | 53.55191 | 36799 ft | 573 kts | 87° |
| 2026-04-20 13:52 | 22.79181 | 53.63810 | 36795 ft | 572 kts | 87° |
| 2026-04-20 13:52 | 22.78904 | 53.72445 | 36778 ft | 573 kts | 88° |
| 2026-04-20 13:53 | 22.78629 | 53.80793 | 36778 ft | 572 kts | 87° |
| 2026-04-20 13:53 | 22.78343 | 53.89390 | 36786 ft | 572 kts | 87° |
| 2026-04-20 13:54 | 22.78147 | 53.97984 | 36795 ft | 567 kts | 82° |
| 2026-04-20 13:54 | 22.79349 | 54.06295 | 36811 ft | 560 kts | 71° |
| 2026-04-20 13:55 | 22.81031 | 54.14505 | 36810 ft | 556 kts | 71° |
| 2026-04-20 13:55 | 22.82705 | 54.22693 | 36811 ft | 555 kts | 71° |
| 2026-04-20 13:56 | 22.84366 | 54.30861 | 36815 ft | 557 kts | 71° |
| 2026-04-20 13:56 | 22.86022 | 54.39048 | 36818 ft | 552 kts | 71° |
| 2026-04-20 13:57 | 22.87668 | 54.47208 | 36820 ft | 553 kts | 71° |
| 2026-04-20 13:57 | 22.89299 | 54.55324 | 36821 ft | 552 kts | 71° |
| 2026-04-20 13:58 | 22.90930 | 54.63466 | 36818 ft | 551 kts | 71° |
| 2026-04-20 13:58 | 22.92544 | 54.71547 | 36805 ft | 550 kts | 72° |
| 2026-04-20 13:59 | 22.94164 | 54.79674 | 36801 ft | 551 kts | 72° |
| 2026-04-20 13:59 | 22.95716 | 54.87489 | 36791 ft | 550 kts | 72° |
| 2026-04-20 14:00 | 22.97324 | 54.95615 | 36790 ft | 546 kts | 72° |
| 2026-04-20 14:00 | 22.98912 | 55.03652 | 36794 ft | 548 kts | 72° |
| 2026-04-20 14:01 | 23.00931 | 55.11518 | 36786 ft | 536 kts | 60° |
| 2026-04-20 14:01 | 23.04658 | 55.18343 | 36792 ft | 520 kts | 43° |
| 2026-04-20 14:02 | 23.09871 | 55.23611 | 36787 ft | 500 kts | 26° |
| 2026-04-20 14:02 | 23.12812 | 55.25514 | 36804 ft | 488 kts | 19° |
| 2026-04-20 14:02 | 23.15930 | 55.26957 | 36803 ft | 482 kts | 12° |
| 2026-04-20 14:03 | 23.22199 | 55.29261 | 36803 ft | 480 kts | 11° |
| 2026-04-20 14:03 | 23.28606 | 55.31419 | 36806 ft | 477 kts | 9° |
| 2026-04-20 14:04 | 23.35002 | 55.33448 | 36810 ft | 476 kts | 9° |
| 2026-04-20 14:04 | 23.41369 | 55.35403 | 36812 ft | 475 kts | 8° |
| 2026-04-20 14:05 | 23.47792 | 55.37341 | 36825 ft | 476 kts | 8° |
| 2026-04-20 14:05 | 23.54188 | 55.39254 | 36827 ft | 476 kts | 8° |
| 2026-04-20 14:06 | 23.60637 | 55.41173 | 36829 ft | 480 kts | 8° |
| 2026-04-20 14:06 | 23.66784 | 55.43002 | 36837 ft | 476 kts | 8° |
| 2026-04-20 14:07 | 23.73213 | 55.44910 | 36841 ft | 478 kts | 8° |
| 2026-04-20 14:07 | 23.79613 | 55.46811 | 36587 ft | 480 kts | 8° |
| 2026-04-20 14:08 | 23.82848 | 55.47773 | 36324 ft | 479 kts | 8° |
| 2026-04-20 14:08 | 23.86071 | 55.48732 | 36061 ft | 478 kts | 8° |
| 2026-04-20 14:08 | 23.89282 | 55.49686 | 35439 ft | 476 kts | 9° |
| 2026-04-20 14:08 | 23.92450 | 55.50625 | 34413 ft | 481 kts | 10° |
| 2026-04-20 14:09 | 23.95723 | 55.51597 | 33474 ft | 483 kts | 12° |
| 2026-04-20 14:09 | 23.98876 | 55.52811 | 32603 ft | 489 kts | 20° |
| 2026-04-20 14:09 | 24.01928 | 55.54581 | 31712 ft | 495 kts | 29° |
| 2026-04-20 14:09 | 24.04688 | 55.56815 | 30787 ft | 501 kts | 38° |
| 2026-04-20 14:10 | 24.07297 | 55.59355 | 30110 ft | 499 kts | 40° |
| 2026-04-20 14:10 | 24.09829 | 55.61871 | 29635 ft | 492 kts | 40° |
| 2026-04-20 14:10 | 24.12364 | 55.64391 | 29100 ft | 497 kts | 40° |
| 2026-04-20 14:10 | 24.14988 | 55.66998 | 28490 ft | 506 kts | 41° |
| 2026-04-20 14:11 | 24.17593 | 55.69587 | 27879 ft | 504 kts | 41° |
| 2026-04-20 14:11 | 24.20182 | 55.72160 | 27279 ft | 499 kts | 41° |
| 2026-04-20 14:11 | 24.22745 | 55.74709 | 26676 ft | 494 kts | 41° |
| 2026-04-20 14:11 | 24.25324 | 55.77274 | 26062 ft | 489 kts | 41° |
| 2026-04-20 14:12 | 24.27828 | 55.79765 | 25458 ft | 485 kts | 40° |
| 2026-04-20 14:12 | 24.30318 | 55.82244 | 24851 ft | 480 kts | 40° |
| 2026-04-20 14:12 | 24.32760 | 55.84675 | 24255 ft | 476 kts | 40° |
| 2026-04-20 14:12 | 24.35174 | 55.87081 | 23714 ft | 469 kts | 40° |
| 2026-04-20 14:13 | 24.37583 | 55.89481 | 23067 ft | 466 kts | 40° |
| 2026-04-20 14:13 | 24.39978 | 55.91867 | 22169 ft | 468 kts | 40° |
| 2026-04-20 14:13 | 24.42386 | 55.94268 | 21138 ft | 472 kts | 40° |
| 2026-04-20 14:13 | 24.44812 | 55.96687 | 20269 ft | 467 kts | 40° |
| 2026-04-20 14:14 | 24.47180 | 55.99052 | 19698 ft | 456 kts | 40° |
| 2026-04-20 14:14 | 24.49521 | 56.01391 | 19082 ft | 447 kts | 40° |
| 2026-04-20 14:14 | 24.51792 | 56.03659 | 18338 ft | 442 kts | 40° |
| 2026-04-20 14:14 | 24.54043 | 56.05910 | 17538 ft | 437 kts | 40° |
| 2026-04-20 14:15 | 24.56280 | 56.08152 | 16755 ft | 431 kts | 40° |
| 2026-04-20 14:15 | 24.58596 | 56.10180 | 16034 ft | 421 kts | 31° |
| 2026-04-20 14:15 | 24.61121 | 56.11684 | 15409 ft | 410 kts | 21° |
| 2026-04-20 14:15 | 24.63801 | 56.12659 | 14797 ft | 398 kts | 11° |
| 2026-04-20 14:16 | 24.66481 | 56.13234 | 14216 ft | 389 kts | 8° |
| 2026-04-20 14:16 | 24.69121 | 56.13750 | 13644 ft | 381 kts | 8° |
| 2026-04-20 14:16 | 24.71730 | 56.14249 | 13087 ft | 377 kts | 8° |
| 2026-04-20 14:16 | 24.74304 | 56.14736 | 12511 ft | 375 kts | 8° |
| 2026-04-20 14:17 | 24.76879 | 56.15126 | 11950 ft | 372 kts | 1° |
| 2026-04-20 14:17 | 24.79417 | 56.14969 | 11399 ft | 368 kts | 349° |
| 2026-04-20 14:17 | 24.81849 | 56.14199 | 11038 ft | 358 kts | 337° |
| 2026-04-20 14:17 | 24.84029 | 56.12949 | 10974 ft | 342 kts | 327° |
| 2026-04-20 14:18 | 24.85886 | 56.11379 | 10816 ft | 335 kts | 318° |
| 2026-04-20 14:18 | 24.87429 | 56.09522 | 10738 ft | 321 kts | 307° |
| 2026-04-20 14:18 | 24.88560 | 56.07458 | 10697 ft | 308 kts | 301° |
| 2026-04-20 14:18 | 24.89567 | 56.05435 | 10632 ft | 295 kts | 301° |
| 2026-04-20 14:19 | 24.90539 | 56.03468 | 10489 ft | 286 kts | 301° |
| 2026-04-20 14:19 | 24.91468 | 56.01590 | 10335 ft | 277 kts | 301° |
| 2026-04-20 14:19 | 24.92371 | 55.99760 | 10221 ft | 267 kts | 301° |
| 2026-04-20 14:19 | 24.93247 | 55.97986 | 10100 ft | 257 kts | 301° |
| 2026-04-20 14:20 | 24.94099 | 55.96263 | 9887 ft | 253 kts | 301° |
| 2026-04-20 14:20 | 24.94945 | 55.94551 | 9797 ft | 261 kts | 301° |
| 2026-04-20 14:20 | 24.95816 | 55.92789 | 9443 ft | 263 kts | 301° |
| 2026-04-20 14:20 | 24.96689 | 55.91022 | 9037 ft | 263 kts | 300° |
| 2026-04-20 14:21 | 24.97544 | 55.89287 | 8855 ft | 255 kts | 301° |
| 2026-04-20 14:21 | 24.98397 | 55.87557 | 8490 ft | 256 kts | 301° |
| 2026-04-20 14:21 | 24.99242 | 55.85846 | 8164 ft | 256 kts | 301° |
| 2026-04-20 14:21 | 25.00093 | 55.84119 | 7841 ft | 255 kts | 301° |
| 2026-04-20 14:22 | 25.00932 | 55.82417 | 7463 ft | 254 kts | 301° |
| 2026-04-20 14:22 | 25.01788 | 55.80681 | 7111 ft | 254 kts | 300° |
| 2026-04-20 14:22 | 25.02629 | 55.78972 | 6780 ft | 254 kts | 301° |
| 2026-04-20 14:22 | 25.03466 | 55.77273 | 6483 ft | 252 kts | 300° |
| 2026-04-20 14:23 | 25.04300 | 55.75578 | 6178 ft | 250 kts | 300° |
| 2026-04-20 14:23 | 25.05132 | 55.73887 | 5849 ft | 250 kts | 300° |
| 2026-04-20 14:23 | 25.05961 | 55.72200 | 5553 ft | 249 kts | 300° |
| 2026-04-20 14:23 | 25.06779 | 55.70538 | 5265 ft | 247 kts | 300° |
| 2026-04-20 14:24 | 25.07596 | 55.68874 | 4947 ft | 247 kts | 300° |
| 2026-04-20 14:24 | 25.08408 | 55.67223 | 4616 ft | 247 kts | 300° |
| 2026-04-20 14:24 | 25.09234 | 55.65540 | 4307 ft | 245 kts | 300° |
| 2026-04-20 14:24 | 25.10037 | 55.63900 | 4078 ft | 241 kts | 300° |
| 2026-04-20 14:25 | 25.10831 | 55.62338 | 4028 ft | 228 kts | 301° |
| 2026-04-20 14:25 | 25.11610 | 55.60868 | 4003 ft | 213 kts | 302° |
| 2026-04-20 14:25 | 25.12363 | 55.59497 | 3995 ft | 198 kts | 303° |
| 2026-04-20 14:25 | 25.13056 | 55.58271 | 3805 ft | 197 kts | 303° |
| 2026-04-20 14:26 | 25.13786 | 55.56990 | 3563 ft | 195 kts | 303° |
| 2026-04-20 14:26 | 25.14498 | 55.55736 | 3330 ft | 193 kts | 303° |
| 2026-04-20 14:26 | 25.15207 | 55.54479 | 3099 ft | 191 kts | 303° |
| 2026-04-20 14:26 | 25.15897 | 55.53249 | 2861 ft | 181 kts | 303° |
| 2026-04-20 14:27 | 25.16531 | 55.52117 | 2639 ft | 169 kts | 303° |
| 2026-04-20 14:27 | 25.17138 | 55.51035 | 2432 ft | 164 kts | 303° |
| 2026-04-20 14:27 | 25.17735 | 55.49965 | 2221 ft | 162 kts | 303° |
| 2026-04-20 14:27 | 25.18322 | 55.48913 | 2013 ft | 161 kts | 303° |
| 2026-04-20 14:28 | 25.18906 | 55.47865 | 1805 ft | 160 kts | 303° |
| 2026-04-20 14:28 | 25.19493 | 55.46814 | 1599 ft | 159 kts | 303° |
| 2026-04-20 14:28 | 25.20069 | 55.45784 | 1390 ft | 159 kts | 303° |
| 2026-04-20 14:28 | 25.20643 | 55.44752 | 1180 ft | 150 kts | 303° |
| 2026-04-20 14:29 | 25.21170 | 55.43809 | 997 ft | 145 kts | 303° |
| 2026-04-20 14:29 | 25.21701 | 55.42870 | 789 ft | 143 kts | 303° |
| 2026-04-20 14:29 | 25.22216 | 55.41928 | 584 ft | 142 kts | 302° |
| 2026-04-20 14:29 | 25.22733 | 55.41019 | 408 ft | 139 kts | 303° |
| 2026-04-20 14:30 | 25.23243 | 55.40113 | 233 ft | 138 kts | 302° |
| 2026-04-20 14:30 | 25.23743 | 55.39207 | 81 ft | 132 kts | 302° |
| 2026-04-20 14:30 | 25.24156 | 55.38473 | 76 ft | 88 kts | 301° |
| 2026-04-20 14:30 | 25.24395 | 55.38040 | 76 ft | 52 kts | 301° |
| 2026-04-20 14:31 | 25.24566 | 55.37730 | 76 ft | 43 kts | 302° |
| 2026-04-20 14:31 | 25.24711 | 55.37467 | 76 ft | 37 kts | 299° |
| 2026-04-20 14:31 | 25.24783 | 55.37221 | 76 ft | 29 kts | 277° |
| 2026-04-20 14:31 | 25.24790 | 55.37042 | 76 ft | 20 kts | 272° |
| 2026-04-20 14:32 | 25.24824 | 55.36899 | 76 ft | 18 kts | 295° |
| 2026-04-20 14:32 | 25.24862 | 55.36773 | 76 ft | 16 kts | 284° |
| 2026-04-20 14:32 | 25.24895 | 55.36662 | 76 ft | 14 kts | 295° |
| 2026-04-20 14:32 | 25.24944 | 55.36566 | 76 ft | 15 kts | 302° |
| 2026-04-20 14:33 | 25.25008 | 55.36450 | 76 ft | 19 kts | 301° |
| 2026-04-20 14:33 | 25.25078 | 55.36324 | 76 ft | 18 kts | 302° |
| 2026-04-20 14:33 | 25.25140 | 55.36212 | 76 ft | 15 kts | 301° |
| 2026-04-20 14:33 | 25.25186 | 55.36127 | 76 ft | 9 kts | 296° |
| 2026-04-20 14:34 | 25.25172 | 55.36067 | 76 ft | 9 kts | 220° |
| 2026-04-20 14:34 | 25.25112 | 55.36026 | 76 ft | 8 kts | 211° |
| 2026-04-20 14:34 | 25.25068 | 55.35997 | 76 ft | 4 kts | 211° |
| 2026-04-20 14:34 | 25.25054 | 55.35988 | 76 ft | 1 kts | 211° |
| 2026-04-20 14:35 | 25.25050 | 55.35985 | 76 ft | 0 kts | 211° |